createdAt,value
2018-06-19T00:00:17.178Z,7.08
2018-06-19T00:02:51.596Z,6.85
2018-06-19T00:05:29.635Z,6.90
2018-06-19T00:08:03.962Z,7.40
2018-06-19T00:10:38.246Z,8.50
2018-06-19T00:13:12.679Z,8.03
2018-06-19T00:15:47.112Z,7.78
2018-06-19T00:18:27.625Z,7.95
2018-06-19T00:21:06.389Z,8.35
2018-06-19T00:23:40.688Z,9.28
2018-06-19T00:26:14.962Z,7.20
2018-06-19T00:28:49.428Z,6.35
2018-06-19T00:31:23.710Z,6.70
2018-06-19T00:33:57.998Z,7.45
2018-06-19T00:36:32.294Z,7.62
2018-06-19T00:39:08.661Z,7.30
2018-06-19T00:41:42.953Z,7.42
2018-06-19T00:44:17.320Z,6.97
2018-06-19T00:46:52.620Z,6.75
2018-06-19T00:49:27.046Z,6.75
2018-06-19T00:52:01.334Z,6.00
2018-06-19T00:54:35.609Z,6.28
2018-06-19T00:57:09.923Z,5.92
2018-06-19T00:59:44.238Z,6.97
2018-06-19T01:02:18.751Z,6.78
2018-06-19T01:04:53.179Z,6.55
2018-06-19T01:07:27.489Z,6.42
2018-06-19T01:10:01.755Z,7.47
2018-06-19T01:12:36.195Z,6.75
2018-06-19T01:15:10.546Z,6.90
2018-06-19T01:17:45.158Z,8.35
2018-06-19T01:20:19.495Z,8.78
2018-06-19T01:22:53.983Z,9.33
2018-06-19T01:25:28.254Z,8.30
2018-06-19T01:28:02.669Z,8.43
2018-06-19T01:30:36.963Z,7.72
2018-06-19T01:33:11.965Z,7.75
2018-06-19T01:35:46.466Z,7.00
2018-06-19T01:38:20.943Z,6.80
2018-06-19T01:40:55.357Z,6.78
2018-06-19T01:43:29.447Z,7.22
2018-06-19T01:46:03.771Z,8.05
2018-06-19T01:48:38.202Z,7.33
2018-06-19T01:51:12.475Z,7.67
2018-06-19T01:53:46.855Z,7.47
2018-06-19T01:56:21.134Z,8.85
2018-06-19T01:58:55.535Z,8.60
2018-06-19T02:01:30.186Z,8.25
2018-06-19T02:04:04.607Z,7.87
2018-06-19T02:06:38.708Z,7.00
2018-06-19T02:09:13.304Z,7.12
2018-06-19T02:11:47.858Z,7.60
2018-06-19T02:14:22.971Z,7.83
2018-06-19T02:16:57.312Z,7.90
2018-06-19T02:19:31.653Z,8.98
2018-06-19T02:22:06.039Z,9.95
2018-06-19T02:24:40.379Z,10.30
2018-06-19T02:27:14.726Z,9.48
2018-06-19T02:29:49.088Z,8.80
2018-06-19T02:32:23.432Z,8.35
2018-06-19T02:34:57.790Z,7.20
2018-06-19T02:37:32.058Z,7.35
2018-06-19T02:40:06.391Z,6.95
2018-06-19T02:42:40.721Z,8.40
2018-06-19T02:45:15.021Z,7.40
2018-06-19T02:47:49.283Z,7.70
2018-06-19T02:50:23.645Z,7.70
2018-06-19T02:52:57.666Z,7.50
2018-06-19T02:55:31.974Z,6.58
2018-06-19T02:58:06.425Z,7.90
2018-06-19T03:00:40.750Z,7.40
2018-06-19T03:03:15.066Z,7.60
2018-06-19T03:05:49.399Z,7.55
2018-06-19T03:08:23.944Z,8.40
2018-06-19T03:10:58.166Z,8.15
2018-06-19T03:13:32.503Z,8.08
2018-06-19T03:16:06.925Z,7.60
2018-06-19T03:18:41.135Z,8.20
2018-06-19T03:21:15.356Z,7.97
2018-06-19T03:23:49.795Z,7.47
2018-06-19T03:26:24.203Z,8.05
2018-06-19T03:28:58.306Z,11.03
2018-06-19T03:31:32.693Z,11.57
2018-06-19T03:34:07.119Z,10.75
2018-06-19T03:36:41.593Z,8.50
2018-06-19T03:39:15.670Z,7.42
2018-06-19T03:41:50.005Z,8.13
2018-06-19T03:44:24.311Z,7.42
2018-06-19T03:46:58.720Z,6.78
2018-06-19T03:49:32.755Z,8.15
2018-06-19T03:52:06.961Z,7.53
2018-06-19T03:54:41.509Z,7.65
2018-06-19T03:57:15.691Z,6.47
2018-06-19T03:59:50.149Z,7.37
2018-06-19T04:02:24.518Z,7.50
2018-06-19T04:04:58.924Z,6.90
2018-06-19T04:07:33.256Z,7.22
2018-06-19T04:10:07.716Z,7.03
2018-06-19T04:12:42.172Z,6.90
2018-06-19T04:15:16.401Z,6.50
2018-06-19T04:17:50.725Z,7.65
2018-06-19T04:20:25.092Z,6.30
2018-06-19T04:22:59.403Z,7.42
2018-06-19T04:25:33.723Z,7.17
2018-06-19T04:28:08.153Z,7.03
2018-06-19T04:30:42.492Z,7.75
2018-06-19T04:33:16.822Z,8.53
2018-06-19T04:35:51.183Z,8.18
2018-06-19T04:38:25.471Z,7.62
2018-06-19T04:40:59.904Z,7.55
2018-06-19T04:43:34.550Z,6.35
2018-06-19T04:46:08.988Z,7.50
2018-06-19T04:48:43.377Z,7.12
2018-06-19T04:51:17.666Z,6.85
2018-06-19T04:53:52.030Z,6.55
2018-06-19T04:56:26.401Z,7.65
2018-06-19T04:59:00.450Z,7.78
2018-06-19T05:01:34.779Z,7.00
2018-06-19T05:04:09.104Z,7.37
2018-06-19T05:06:43.478Z,6.72
2018-06-19T05:09:17.737Z,7.70
2018-06-19T05:11:51.937Z,7.60
2018-06-19T05:14:26.466Z,7.10
2018-06-19T05:17:00.763Z,7.00
2018-06-19T05:19:35.046Z,7.42
2018-06-19T05:22:09.482Z,7.45
2018-06-19T05:24:43.732Z,6.92
2018-06-19T05:27:18.076Z,6.40
2018-06-19T05:29:52.469Z,6.97
2018-06-19T05:32:26.739Z,23.77
2018-06-19T05:35:01.230Z,7.90
2018-06-19T05:37:35.522Z,8.75
2018-06-19T05:40:09.872Z,7.58
2018-06-19T05:42:44.278Z,6.87
2018-06-19T05:45:18.350Z,6.55
2018-06-19T05:47:52.686Z,7.37
2018-06-19T05:50:27.029Z,7.10
2018-06-19T05:53:01.309Z,6.60
2018-06-19T05:55:35.728Z,6.55
2018-06-19T05:58:09.944Z,7.33
2018-06-19T06:00:44.306Z,6.83
2018-06-19T06:03:18.571Z,6.92
2018-06-19T06:05:53.202Z,7.60
2018-06-19T06:08:27.691Z,6.85
2018-06-19T06:11:02.147Z,6.05
2018-06-19T06:13:36.499Z,6.08
2018-06-19T06:16:10.755Z,5.60
2018-06-19T06:18:45.192Z,6.58
2018-06-19T06:21:19.495Z,6.12
2018-06-19T06:23:53.901Z,5.50
2018-06-19T06:26:28.218Z,6.35
2018-06-19T06:29:02.704Z,6.00
2018-06-19T06:31:37.224Z,6.03
2018-06-19T06:34:11.706Z,6.00
2018-06-19T06:36:46.836Z,8.40
2018-06-19T06:39:21.254Z,6.50
2018-06-19T06:41:55.503Z,5.97
2018-06-19T06:44:29.842Z,6.05
2018-06-19T06:47:04.292Z,5.83
2018-06-19T06:49:38.627Z,5.80
2018-06-19T06:52:13.410Z,5.90
2018-06-19T06:54:47.812Z,5.72
2018-06-19T06:57:22.180Z,5.92
2018-06-19T06:59:56.554Z,5.72
2018-06-19T07:02:31.023Z,5.95
2018-06-19T07:05:05.507Z,6.33
2018-06-19T07:07:39.810Z,5.60
2018-06-19T07:10:14.197Z,5.30
2018-06-19T07:12:48.551Z,4.12
2018-06-19T07:15:22.884Z,4.83
2018-06-19T07:17:57.332Z,5.40
2018-06-19T07:20:31.822Z,4.90
2018-06-19T07:23:05.889Z,5.10
2018-06-19T07:25:40.014Z,5.00
2018-06-19T07:28:14.510Z,4.70
2018-06-19T07:30:49.014Z,4.47
2018-06-19T07:33:23.495Z,5.03
2018-06-19T07:35:57.846Z,5.28
2018-06-19T07:38:32.138Z,6.00
2018-06-19T07:41:06.588Z,4.97
2018-06-19T07:43:40.878Z,4.65
2018-06-19T07:46:15.302Z,3.27
2018-06-19T07:48:49.660Z,3.20
2018-06-19T07:51:24.017Z,4.00
2018-06-19T07:53:58.367Z,3.58
2018-06-19T07:56:32.644Z,3.80
2018-06-19T07:59:06.974Z,3.47
2018-06-19T08:01:41.210Z,3.52
2018-06-19T08:04:15.468Z,3.80
2018-06-19T08:06:49.734Z,3.75
2018-06-19T08:09:24.150Z,4.00
2018-06-19T08:11:58.585Z,4.00
2018-06-19T08:14:32.889Z,3.83
2018-06-19T08:17:07.188Z,3.92
2018-06-19T08:19:41.612Z,3.80
2018-06-19T08:22:16.126Z,5.42
2018-06-19T08:24:50.595Z,3.92
2018-06-19T08:27:25.041Z,4.55
2018-06-19T08:29:59.362Z,4.28
2018-06-19T08:32:33.667Z,3.95
2018-06-19T08:35:08.047Z,4.35
2018-06-19T08:37:42.380Z,4.75
2018-06-19T08:40:16.800Z,4.75
2018-06-19T08:42:51.094Z,4.60
2018-06-19T08:45:25.421Z,4.20
2018-06-19T08:47:59.901Z,4.10
2018-06-19T08:50:33.938Z,3.58
2018-06-19T08:53:08.292Z,4.15
2018-06-19T08:55:42.556Z,3.70
2018-06-19T08:58:16.861Z,3.75
2018-06-19T09:00:51.162Z,3.92
2018-06-19T09:03:25.428Z,4.00
2018-06-19T09:05:59.694Z,3.80
2018-06-19T09:08:34.028Z,3.75
2018-06-19T09:11:08.328Z,3.98
2018-06-19T09:13:42.732Z,4.00
2018-06-19T09:16:16.994Z,3.80
2018-06-19T09:18:51.485Z,4.10
2018-06-19T09:21:25.544Z,3.42
2018-06-19T09:23:59.939Z,4.05
2018-06-19T09:26:34.196Z,4.00
2018-06-19T09:29:08.669Z,3.50
2018-06-19T09:31:43.099Z,4.00
2018-06-19T09:34:17.412Z,3.98
2018-06-19T09:36:51.646Z,4.37
2018-06-19T09:39:25.951Z,4.55
2018-06-19T09:42:00.270Z,4.25
2018-06-19T09:44:34.580Z,5.45
2018-06-19T09:47:09.095Z,3.80
2018-06-19T09:49:44.060Z,4.03
2018-06-19T09:52:18.397Z,3.77
2018-06-19T09:54:52.833Z,3.27
2018-06-19T09:57:27.132Z,3.35
2018-06-19T10:00:01.416Z,4.05
2018-06-19T10:02:35.434Z,3.12
2018-06-19T10:05:09.877Z,3.17
2018-06-19T10:07:44.190Z,3.20
2018-06-19T10:10:18.703Z,3.08
2018-06-19T10:12:53.082Z,3.70
2018-06-19T10:15:27.449Z,3.30
2018-06-19T10:18:01.956Z,3.00
2018-06-19T10:20:36.158Z,2.70
2018-06-19T10:23:10.496Z,3.62
2018-06-19T10:25:44.707Z,3.05
2018-06-19T10:28:19.058Z,3.17
2018-06-19T10:30:53.136Z,2.65
2018-06-19T10:33:27.432Z,3.00
2018-06-19T10:36:01.744Z,3.10
2018-06-19T10:38:36.134Z,3.27
2018-06-19T10:41:10.288Z,3.40
2018-06-19T10:43:44.720Z,4.62
2018-06-19T10:46:18.938Z,4.42
2018-06-19T10:48:53.653Z,6.12
2018-06-19T10:51:28.136Z,3.08
2018-06-19T10:54:02.460Z,3.20
2018-06-19T10:56:36.744Z,3.10
2018-06-19T10:59:11.153Z,3.25
2018-06-19T11:01:45.536Z,3.10
2018-06-19T11:04:19.781Z,3.15
2018-06-19T11:06:54.331Z,3.40
2018-06-19T11:09:28.511Z,3.20
2018-06-19T11:12:02.815Z,3.22
2018-06-19T11:14:37.175Z,3.25
2018-06-19T11:17:11.572Z,3.37
2018-06-19T11:19:45.975Z,3.80
2018-06-19T11:22:20.320Z,2.85
2018-06-19T11:24:54.620Z,3.50
2018-06-19T11:27:29.061Z,2.98
2018-06-19T11:30:03.391Z,3.52
2018-06-19T11:32:37.699Z,2.98
2018-06-19T11:35:11.769Z,2.95
2018-06-19T11:37:46.098Z,2.52
2018-06-19T11:40:20.419Z,2.62
2018-06-19T11:42:54.794Z,3.25
2018-06-19T11:45:29.142Z,4.03
2018-06-19T11:48:03.486Z,4.33
2018-06-19T11:50:37.937Z,3.95
2018-06-19T11:53:12.231Z,3.40
2018-06-19T11:55:46.565Z,3.05
2018-06-19T11:58:20.856Z,3.20
2018-06-19T12:00:54.975Z,2.67
2018-06-19T12:03:29.387Z,3.67
2018-06-19T12:06:03.911Z,3.20
2018-06-19T12:08:38.254Z,3.58
2018-06-19T12:11:12.328Z,3.20
2018-06-19T12:13:46.729Z,3.10
2018-06-19T12:16:21.089Z,3.47
2018-06-19T12:18:55.555Z,3.00
2018-06-19T12:21:30.007Z,2.30
2018-06-19T12:24:04.547Z,2.83
2018-06-19T12:26:38.843Z,3.00
2018-06-19T12:29:13.123Z,3.00
2018-06-19T12:31:47.593Z,2.83
2018-06-19T12:34:22.499Z,3.30
2018-06-19T12:36:56.762Z,2.77
2018-06-19T12:39:30.847Z,2.90
2018-06-19T12:42:05.411Z,2.60
2018-06-19T12:44:39.850Z,3.40
2018-06-19T12:47:14.116Z,4.33
2018-06-19T12:50:28.194Z,3.95
2018-06-19T12:53:07.858Z,3.15
2018-06-19T12:55:53.755Z,4.67
2018-06-19T12:58:28.235Z,3.10
2018-06-19T13:01:02.630Z,2.77
2018-06-19T13:04:47.119Z,2.50
2018-06-19T13:07:21.203Z,2.37
2018-06-19T13:09:55.727Z,2.55
2018-06-19T13:12:41.493Z,2.52
2018-06-19T13:15:15.635Z,2.45
2018-06-19T13:18:01.647Z,2.40
2018-06-19T13:20:47.543Z,2.72
2018-06-19T13:23:21.898Z,3.10
2018-06-19T13:25:56.174Z,2.42
2018-06-19T13:29:46.982Z,2.70
2018-06-19T13:32:21.435Z,4.87
2018-06-19T13:34:55.838Z,3.77
2018-06-19T13:37:30.152Z,3.22
2018-06-19T13:41:18.911Z,2.90
2018-06-19T13:44:06.643Z,2.77
2018-06-19T13:46:41.369Z,4.30
2018-06-19T13:49:15.782Z,3.10
2018-06-19T13:51:50.141Z,2.45
2018-06-19T13:54:24.433Z,2.40
2018-06-19T13:57:11.440Z,2.40
2018-06-19T13:59:45.726Z,3.00
2018-06-19T14:02:20.583Z,2.92
2018-06-19T14:04:54.649Z,3.58
2018-06-19T14:07:31.123Z,2.58
2018-06-19T14:10:10.897Z,2.17
2018-06-19T14:13:02.720Z,1.92
2018-06-19T14:15:40.938Z,2.10
2018-06-19T14:18:16.143Z,2.10
2018-06-19T14:20:50.249Z,2.00
2018-06-19T14:23:24.670Z,2.75
2018-06-19T14:25:59.015Z,1.90
2018-06-19T14:28:33.433Z,2.05
2018-06-19T14:31:07.523Z,1.70
2018-06-19T14:33:41.834Z,2.10
2018-06-19T14:36:16.054Z,2.10
2018-06-19T14:38:50.491Z,1.90
2018-06-19T14:41:25.126Z,2.20
2018-06-19T14:43:59.644Z,2.27
2018-06-19T14:46:33.952Z,2.30
2018-06-19T14:49:08.310Z,1.90
2018-06-19T14:51:42.600Z,1.75
2018-06-19T14:54:17.246Z,2.05
2018-06-19T14:56:51.642Z,2.75
2018-06-19T14:59:25.758Z,2.45
2018-06-19T15:02:00.303Z,3.80
2018-06-19T15:04:34.624Z,2.83
2018-06-19T15:07:09.074Z,2.20
2018-06-19T15:09:43.587Z,1.87
2018-06-19T15:12:17.993Z,2.15
2018-06-19T15:14:52.058Z,2.10
2018-06-19T15:17:26.508Z,2.10
2018-06-19T15:20:00.916Z,1.80
2018-06-19T15:22:35.017Z,2.10
2018-06-19T15:25:09.072Z,1.70
2018-06-19T15:27:43.574Z,1.77
2018-06-19T15:30:17.654Z,2.85
2018-06-19T15:32:51.969Z,2.10
2018-06-19T15:35:26.298Z,1.95
2018-06-19T15:38:01.123Z,2.25
2018-06-19T15:40:35.378Z,2.10
2018-06-19T15:43:09.748Z,1.65
2018-06-19T15:45:44.115Z,1.90
2018-06-19T15:48:18.587Z,2.05
2018-06-19T15:50:53.115Z,1.70
2018-06-19T15:53:27.425Z,1.67
2018-06-19T15:56:01.959Z,1.92
2018-06-19T15:58:36.078Z,2.25
2018-06-19T16:01:11.041Z,2.80
2018-06-19T16:03:45.294Z,2.75
2018-06-19T16:06:19.730Z,2.42
2018-06-19T16:08:53.993Z,2.25
2018-06-19T16:11:28.356Z,2.03
2018-06-19T16:14:02.521Z,1.77
2018-06-19T16:16:37.060Z,1.23
2018-06-19T16:19:11.448Z,1.90
2018-06-19T16:21:45.768Z,1.40
2018-06-19T16:24:20.132Z,1.80
2018-06-19T16:26:54.280Z,1.70
2018-06-19T16:29:28.704Z,1.53
2018-06-19T16:32:03.140Z,1.37
2018-06-19T16:34:37.542Z,1.43
2018-06-19T16:37:11.926Z,1.50
2018-06-19T16:39:46.364Z,1.47
2018-06-19T16:42:20.497Z,2.10
2018-06-19T16:44:54.932Z,1.50
2018-06-19T16:47:29.175Z,1.60
2018-06-19T16:50:03.460Z,1.43
2018-06-19T16:52:37.707Z,1.67
2018-06-19T16:55:12.011Z,1.63
2018-06-19T16:57:46.991Z,1.97
2018-06-19T17:00:21.793Z,1.60
2018-06-19T17:02:55.857Z,2.53
2018-06-19T17:05:30.082Z,2.67
2018-06-19T17:08:04.422Z,2.23
2018-06-19T17:10:38.607Z,2.10
2018-06-19T17:13:13.462Z,1.80
2018-06-19T17:15:47.982Z,2.03
2018-06-19T17:18:22.517Z,2.30
2018-06-19T17:20:56.805Z,1.50
2018-06-19T17:23:31.131Z,1.90
2018-06-19T17:26:05.847Z,2.00
2018-06-19T17:28:40.096Z,1.73
2018-06-19T17:31:14.493Z,1.83
2018-06-19T17:33:48.894Z,1.70
2018-06-19T17:36:23.202Z,1.47
2018-06-19T17:38:57.700Z,1.90
2018-06-19T17:41:32.486Z,1.50
2018-06-19T17:44:07.929Z,1.57
2018-06-19T17:46:42.261Z,1.53
2018-06-19T17:49:16.675Z,1.70
2018-06-19T17:51:50.772Z,1.60
2018-06-19T17:54:25.177Z,2.07
2018-06-19T17:56:59.527Z,1.60
2018-06-19T17:59:34.045Z,2.10
2018-06-19T18:02:08.821Z,2.97
2018-06-19T18:04:43.143Z,3.83
2018-06-19T18:07:17.498Z,3.27
2018-06-19T18:09:51.789Z,3.17
2018-06-19T18:12:26.210Z,2.17
2018-06-19T18:15:00.667Z,2.30
2018-06-19T18:17:35.081Z,2.47
2018-06-19T18:20:09.702Z,2.20
2018-06-19T18:22:44.028Z,2.42
2018-06-19T18:25:18.340Z,2.37
2018-06-19T18:27:52.470Z,2.10
2018-06-19T18:30:26.727Z,2.40
2018-06-19T18:33:01.150Z,2.85
2018-06-19T18:35:35.510Z,2.50
2018-06-19T18:38:09.831Z,2.27
2018-06-19T18:40:44.151Z,2.10
2018-06-19T18:43:18.448Z,2.10
2018-06-19T18:45:52.545Z,2.15
2018-06-19T18:48:26.813Z,1.92
2018-06-19T18:51:01.102Z,2.17
2018-06-19T18:53:35.646Z,2.00
2018-06-19T18:56:10.060Z,2.45
2018-06-19T18:58:44.533Z,2.40
2018-06-19T19:01:18.999Z,2.52
2018-06-19T19:03:53.338Z,3.52
2018-06-19T19:06:27.898Z,2.80
2018-06-19T19:09:02.361Z,3.80
2018-06-19T19:11:36.934Z,4.05
2018-06-19T19:14:10.963Z,2.45
2018-06-19T19:16:50.698Z,2.55
2018-06-19T19:19:25.570Z,2.90
2018-06-19T19:21:59.961Z,2.70
2018-06-19T19:24:34.387Z,2.40
2018-06-19T19:27:14.161Z,2.92
2018-06-19T19:29:50.021Z,2.70
2018-06-19T19:32:24.384Z,3.05
2018-06-19T19:34:58.759Z,3.00
2018-06-19T19:37:38.439Z,3.17
2018-06-19T19:40:12.573Z,4.30
2018-06-19T19:42:46.876Z,4.00
2018-06-19T19:45:21.275Z,4.10
2018-06-19T19:48:01.219Z,4.05
2018-06-19T19:50:35.491Z,5.37
2018-06-19T19:53:09.800Z,5.08
2018-06-19T19:55:49.702Z,5.20
2018-06-19T19:58:29.358Z,4.25
2018-06-19T20:01:03.805Z,3.35
2018-06-19T20:03:37.943Z,3.10
2018-06-19T20:06:12.451Z,2.75
2018-06-19T20:08:47.507Z,5.53
2018-06-19T20:11:21.956Z,5.10
2018-06-19T20:13:56.216Z,5.58
2018-06-19T20:16:30.551Z,4.47
2018-06-19T20:19:04.852Z,3.77
2018-06-19T20:21:39.292Z,4.05
2018-06-19T20:24:13.788Z,4.42
2018-06-19T20:26:48.308Z,4.53
2018-06-19T20:29:22.818Z,4.50
2018-06-19T20:31:57.230Z,4.50
2018-06-19T20:34:31.542Z,4.50
2018-06-19T20:37:06.179Z,4.40
2018-06-19T20:39:40.714Z,3.85
2018-06-19T20:42:15.113Z,4.08
2018-06-19T20:44:49.420Z,4.20
2018-06-19T20:47:23.774Z,4.22
2018-06-19T20:49:58.174Z,3.67
2018-06-19T20:52:32.626Z,3.85
2018-06-19T20:55:06.954Z,4.37
2018-06-19T20:57:41.273Z,4.28
2018-06-19T21:00:15.641Z,4.08
2018-06-19T21:02:50.068Z,3.90
2018-06-19T21:05:24.398Z,4.25
2018-06-19T21:07:58.699Z,4.33
2018-06-19T21:10:33.138Z,6.08
2018-06-19T21:13:07.661Z,6.83
2018-06-19T21:15:42.667Z,5.55
2018-06-19T21:18:17.003Z,5.20
2018-06-19T21:20:51.538Z,4.92
2018-06-19T21:23:26.364Z,4.47
2018-06-19T21:26:00.864Z,4.40
2018-06-19T21:28:35.358Z,4.60
2018-06-19T21:31:09.841Z,3.98
2018-06-19T21:33:44.187Z,4.60
2018-06-19T21:36:18.393Z,4.37
2018-06-19T21:38:52.581Z,4.37
2018-06-19T21:41:27.010Z,4.15
2018-06-19T21:44:01.451Z,4.25
2018-06-19T21:46:35.744Z,4.10
2018-06-19T21:49:10.089Z,4.45
2018-06-19T21:51:44.224Z,4.45
2018-06-19T21:54:18.598Z,4.50
2018-06-19T21:56:53.028Z,4.45
2018-06-19T21:59:27.290Z,4.30
2018-06-19T22:02:02.601Z,4.53
2018-06-19T22:04:36.964Z,4.85
2018-06-19T22:07:11.330Z,3.83
2018-06-19T22:09:45.645Z,4.10
2018-06-19T22:12:19.742Z,4.45
2018-06-19T22:14:53.967Z,5.85
2018-06-19T22:17:28.519Z,5.87
2018-06-19T22:20:02.891Z,6.45
2018-06-19T22:22:37.251Z,5.05
2018-06-19T22:25:12.181Z,5.35
2018-06-19T22:27:46.489Z,4.25
2018-06-19T22:30:20.804Z,4.62
2018-06-19T22:32:55.053Z,4.50
2018-06-19T22:35:29.484Z,4.17
2018-06-19T22:38:03.843Z,4.55
2018-06-19T22:40:38.259Z,4.12
2018-06-19T22:43:12.337Z,3.90
2018-06-19T22:45:46.800Z,4.85
2018-06-19T22:48:21.304Z,4.30
2018-06-19T22:50:55.592Z,4.65
2018-06-19T22:53:30.139Z,4.72
2018-06-19T22:56:04.481Z,4.05
2018-06-19T22:58:38.813Z,3.60
2018-06-19T23:01:13.110Z,4.45
2018-06-19T23:03:47.476Z,4.65
2018-06-19T23:06:21.539Z,4.25
2018-06-19T23:08:55.964Z,5.17
2018-06-19T23:11:30.370Z,3.98
2018-06-19T23:14:04.719Z,6.10
2018-06-19T23:16:39.108Z,5.58
2018-06-19T23:19:13.238Z,6.15
2018-06-19T23:21:47.766Z,5.35
2018-06-19T23:24:22.172Z,4.58
2018-06-19T23:26:56.531Z,4.58
2018-06-19T23:29:30.804Z,4.40
2018-06-19T23:32:05.291Z,4.90
2018-06-19T23:34:39.831Z,4.50
2018-06-19T23:37:13.961Z,4.75
2018-06-19T23:39:48.372Z,5.20
2018-06-19T23:42:22.690Z,4.45
2018-06-19T23:44:57.196Z,4.70
2018-06-19T23:47:31.575Z,4.75
2018-06-19T23:50:06.093Z,4.40
2018-06-19T23:52:40.382Z,4.25
2018-06-19T23:55:14.806Z,3.90
2018-06-19T23:57:49.827Z,3.90
